createdAt,value
2022-08-03T00:01:37.323Z,1.90
2022-08-03T00:04:06.090Z,1.52
2022-08-03T00:06:37.122Z,1.77
2022-08-03T00:09:07.123Z,1.67
2022-08-03T00:11:35.140Z,2.22
2022-08-03T00:14:03.121Z,2.00
2022-08-03T00:16:31.112Z,2.28
2022-08-03T00:19:00.727Z,2.40
2022-08-03T00:21:29.323Z,2.00
2022-08-03T00:23:57.768Z,2.50
2022-08-03T00:26:27.014Z,2.42
2022-08-03T00:28:54.951Z,2.72
2022-08-03T00:31:39.839Z,2.65
2022-08-03T00:34:10.786Z,2.50
2022-08-03T00:36:40.962Z,2.72
2022-08-03T00:39:09.219Z,2.45
2022-08-03T00:41:38.542Z,2.30
2022-08-03T00:44:06.456Z,2.00
2022-08-03T00:46:34.582Z,2.05
2022-08-03T00:49:03.501Z,2.00
2022-08-03T00:51:31.490Z,1.88
2022-08-03T00:53:59.483Z,1.88
2022-08-03T00:56:27.830Z,1.70
2022-08-03T00:58:58.425Z,1.95
2022-08-03T01:01:26.432Z,1.70
2022-08-03T01:04:00.268Z,1.90
2022-08-03T01:06:34.578Z,1.60
2022-08-03T01:09:06.691Z,1.83
2022-08-03T01:12:01.026Z,2.03
2022-08-03T01:14:35.540Z,1.70
2022-08-03T01:17:06.585Z,1.80
2022-08-03T01:19:45.009Z,2.15
2022-08-03T01:22:24.782Z,1.55
2022-08-03T01:24:58.138Z,1.70
2022-08-03T01:27:30.712Z,1.70
2022-08-03T01:30:06.083Z,1.92
2022-08-03T01:32:58.244Z,1.70
2022-08-03T01:35:36.708Z,1.90
2022-08-03T01:38:11.267Z,1.90
2022-08-03T01:40:41.170Z,1.85
2022-08-03T01:43:10.563Z,2.10
2022-08-03T01:45:40.339Z,1.70
2022-08-03T01:48:09.094Z,1.98
2022-08-03T01:50:37.454Z,1.77
2022-08-03T01:53:07.876Z,1.90
2022-08-03T01:55:37.023Z,1.95
2022-08-03T01:58:06.931Z,1.90
2022-08-03T02:00:37.316Z,1.90
2022-08-03T02:03:08.024Z,1.80
2022-08-03T02:05:36.360Z,1.85
2022-08-03T02:08:06.963Z,1.90
2022-08-03T02:10:36.725Z,2.30
2022-08-03T02:13:06.401Z,2.03
2022-08-03T02:15:35.079Z,1.85
2022-08-03T02:18:04.702Z,2.03
2022-08-03T02:20:36.353Z,2.00
2022-08-03T02:23:04.708Z,2.00
2022-08-03T02:25:33.719Z,2.13
2022-08-03T02:28:08.334Z,2.08
2022-08-03T02:30:38.653Z,2.03
2022-08-03T02:33:11.686Z,2.30
2022-08-03T02:35:41.140Z,2.63
2022-08-03T02:38:11.439Z,2.10
2022-08-03T02:40:40.703Z,2.25
2022-08-03T02:43:10.415Z,1.77
2022-08-03T02:45:45.502Z,1.98
2022-08-03T02:48:17.565Z,1.90
2022-08-03T02:50:47.261Z,1.80
2022-08-03T02:53:15.378Z,2.38
2022-08-03T02:55:45.987Z,2.22
2022-08-03T02:58:14.859Z,2.10
2022-08-03T03:00:44.724Z,2.40
2022-08-03T03:03:12.820Z,2.10
2022-08-03T03:05:55.823Z,2.20
2022-08-03T03:08:28.741Z,2.40
2022-08-03T03:10:58.577Z,2.58
2022-08-03T03:13:28.310Z,2.42
2022-08-03T03:15:58.505Z,2.30
2022-08-03T03:18:26.711Z,2.70
2022-08-03T03:20:55.282Z,2.53
2022-08-03T03:23:23.881Z,2.65
2022-08-03T03:25:53.544Z,2.50
2022-08-03T03:28:21.541Z,2.35
2022-08-03T03:30:53.167Z,2.40
2022-08-03T03:33:21.763Z,2.70
2022-08-03T03:35:50.147Z,2.38
2022-08-03T03:38:18.304Z,2.53
2022-08-03T03:40:46.435Z,2.80
2022-08-03T03:43:15.791Z,2.92
2022-08-03T03:45:43.968Z,2.40
2022-08-03T03:48:12.445Z,2.80
2022-08-03T03:50:41.399Z,2.92
2022-08-03T03:53:11.073Z,2.85
2022-08-03T03:55:59.254Z,3.13
2022-08-03T03:58:29.541Z,3.20
2022-08-03T04:00:57.508Z,2.95
2022-08-03T04:03:25.511Z,3.15
2022-08-03T04:06:10.742Z,3.25
2022-08-03T04:08:56.233Z,3.15
2022-08-03T04:11:30.060Z,3.17
2022-08-03T04:14:05.231Z,3.42
2022-08-03T04:16:38.786Z,3.10
2022-08-03T04:19:12.034Z,3.47
2022-08-03T04:21:42.980Z,3.38
2022-08-03T04:24:12.372Z,3.45
2022-08-03T04:26:41.772Z,3.20
2022-08-03T04:29:12.411Z,3.58
2022-08-03T04:31:41.140Z,3.28
2022-08-03T04:34:09.276Z,2.95
2022-08-03T04:36:41.270Z,3.30
2022-08-03T04:39:12.031Z,3.35
2022-08-03T04:42:07.188Z,3.20
2022-08-03T04:44:30.473Z,3.45
2022-08-03T04:46:59.251Z,2.80
2022-08-03T04:49:27.643Z,3.17
2022-08-03T04:51:55.862Z,3.30
2022-08-03T04:54:23.757Z,3.35
2022-08-03T04:56:51.731Z,3.10
2022-08-03T04:59:19.698Z,2.88
2022-08-03T05:01:49.178Z,2.90
2022-08-03T05:04:17.136Z,3.20
2022-08-03T05:06:48.212Z,2.90
2022-08-03T05:09:50.245Z,3.25
2022-08-03T05:12:11.529Z,3.10
2022-08-03T05:14:39.733Z,3.20
2022-08-03T05:17:09.529Z,3.00
2022-08-03T05:19:37.593Z,2.80
2022-08-03T05:22:05.532Z,2.60
2022-08-03T05:24:33.520Z,2.95
2022-08-03T05:27:01.465Z,2.92
2022-08-03T05:29:29.421Z,2.88
2022-08-03T05:31:57.496Z,2.70
2022-08-03T05:34:26.852Z,2.88
2022-08-03T05:36:54.815Z,2.97
2022-08-03T05:39:22.779Z,3.10
2022-08-03T05:41:50.739Z,2.80
2022-08-03T05:44:40.469Z,2.90
2022-08-03T05:52:00.027Z,2.60
2022-08-03T05:54:55.580Z,2.40
2022-08-03T05:57:25.835Z,2.67
2022-08-03T05:59:58.031Z,2.42
2022-08-03T06:02:27.061Z,2.28
2022-08-03T06:04:55.369Z,2.33
2022-08-03T06:07:23.577Z,2.50
2022-08-03T06:10:33.803Z,2.20
2022-08-03T06:12:41.386Z,2.10
2022-08-03T06:15:11.453Z,2.10
2022-08-03T06:17:47.233Z,2.17
2022-08-03T06:20:16.869Z,2.28
2022-08-03T06:22:50.848Z,2.20
2022-08-03T06:25:21.324Z,2.30
2022-08-03T06:27:49.466Z,2.05
2022-08-03T06:30:21.228Z,2.30
2022-08-03T06:32:52.028Z,2.20
2022-08-03T06:35:20.513Z,2.17
2022-08-03T06:37:49.885Z,2.00
2022-08-03T06:40:24.612Z,2.50
2022-08-03T06:42:52.726Z,2.10
2022-08-03T06:45:20.883Z,2.10
2022-08-03T06:47:48.857Z,2.00
2022-08-03T06:50:19.027Z,1.90
2022-08-03T06:52:48.654Z,2.10
2022-08-03T06:55:16.565Z,2.10
2022-08-03T06:57:45.930Z,2.00
2022-08-03T07:00:14.815Z,2.20
2022-08-03T07:02:43.178Z,2.30
2022-08-03T07:05:11.948Z,2.30
2022-08-03T07:07:40.400Z,2.28
2022-08-03T07:10:09.583Z,2.10
2022-08-03T07:12:37.940Z,2.35
2022-08-03T07:15:55.232Z,2.30
2022-08-03T07:18:13.836Z,2.40
2022-08-03T07:20:42.243Z,2.17
2022-08-03T07:23:18.838Z,2.78
2022-08-03T07:25:47.444Z,2.42
2022-08-03T07:28:15.586Z,2.20
2022-08-03T07:30:44.909Z,2.40
2022-08-03T07:33:12.843Z,2.45
2022-08-03T07:35:40.860Z,2.22
2022-08-03T07:38:08.826Z,2.60
2022-08-03T07:40:36.845Z,2.10
2022-08-03T07:43:05.031Z,2.55
2022-08-03T07:45:33.356Z,2.22
2022-08-03T07:48:02.764Z,2.30
2022-08-03T07:50:31.075Z,2.75
2022-08-03T07:52:59.749Z,2.38
2022-08-03T07:55:28.685Z,2.45
2022-08-03T07:58:04.782Z,2.30
2022-08-03T08:00:33.239Z,2.22
2022-08-03T08:03:02.773Z,2.20
2022-08-03T08:05:32.542Z,2.20
2022-08-03T08:08:00.802Z,2.45
2022-08-03T08:10:29.258Z,2.28
2022-08-03T08:12:57.594Z,2.22
2022-08-03T08:15:25.806Z,2.15
2022-08-03T08:17:54.991Z,2.13
2022-08-03T08:20:30.398Z,2.30
2022-08-03T08:23:01.397Z,2.22
2022-08-03T08:25:31.322Z,2.13
2022-08-03T08:28:22.171Z,2.00
2022-08-03T08:30:50.015Z,1.75
2022-08-03T08:33:23.103Z,1.77
2022-08-03T08:35:54.883Z,2.10
2022-08-03T08:38:23.306Z,2.00
2022-08-03T08:40:51.407Z,2.08
2022-08-03T08:43:19.334Z,2.10
2022-08-03T08:45:49.031Z,2.20
2022-08-03T08:48:19.812Z,2.10
2022-08-03T08:50:47.893Z,2.00
2022-08-03T08:53:18.270Z,1.75
2022-08-03T08:55:58.453Z,2.00
2022-08-03T08:58:30.255Z,1.83
2022-08-03T09:00:58.373Z,1.80
2022-08-03T09:03:29.905Z,2.03
2022-08-03T09:06:00.112Z,1.73
2022-08-03T09:08:29.728Z,1.63
2022-08-03T09:10:57.617Z,1.83
2022-08-03T09:13:25.482Z,1.83
2022-08-03T09:16:14.123Z,1.42
2022-08-03T09:18:42.433Z,1.60
2022-08-03T09:21:34.948Z,1.65
2022-08-03T09:26:39.023Z,1.55
2022-08-03T09:29:13.754Z,1.70
2022-08-03T09:31:44.288Z,1.42
2022-08-03T09:34:14.162Z,1.70
2022-08-03T09:36:43.958Z,1.63
2022-08-03T09:39:15.243Z,1.40
2022-08-03T09:41:44.983Z,1.50
2022-08-03T09:44:24.694Z,1.63
2022-08-03T09:46:55.067Z,1.30
2022-08-03T09:49:23.352Z,1.40
2022-08-03T09:52:32.975Z,1.35
2022-08-03T09:54:40.893Z,1.40
2022-08-03T09:57:09.028Z,1.42
2022-08-03T09:59:41.226Z,1.40
2022-08-03T10:02:22.038Z,1.35
2022-08-03T10:04:51.053Z,1.33
2022-08-03T10:07:19.413Z,1.67
2022-08-03T10:09:57.192Z,1.40
2022-08-03T10:12:25.382Z,1.13
2022-08-03T10:14:53.812Z,1.30
2022-08-03T10:17:22.319Z,1.42
2022-08-03T10:19:50.267Z,1.40
2022-08-03T10:22:21.104Z,1.05
2022-08-03T10:24:54.159Z,1.20
2022-08-03T10:27:24.289Z,1.50
2022-08-03T10:29:54.583Z,1.38
2022-08-03T10:32:26.662Z,1.40
2022-08-03T10:35:00.230Z,1.40
2022-08-03T10:37:34.457Z,1.58
2022-08-03T10:40:03.933Z,1.42
2022-08-03T10:42:33.306Z,1.75
2022-08-03T10:45:06.116Z,1.50
2022-08-03T10:47:35.426Z,1.20
2022-08-03T10:50:03.994Z,1.50
2022-08-03T10:52:36.085Z,1.65
2022-08-03T10:55:47.710Z,1.58
2022-08-03T10:58:57.545Z,1.30
2022-08-03T11:02:00.371Z,1.25
2022-08-03T11:04:30.297Z,1.40
2022-08-03T11:07:21.409Z,1.50
2022-08-03T11:09:50.926Z,1.63
2022-08-03T11:12:29.845Z,1.50
2022-08-03T11:15:03.246Z,1.55
2022-08-03T11:17:31.387Z,1.55
2022-08-03T11:19:59.411Z,1.50
2022-08-03T11:22:50.863Z,1.30
2022-08-03T11:25:54.779Z,1.60
2022-08-03T11:28:28.320Z,1.50
2022-08-03T11:30:57.701Z,2.05
2022-08-03T11:33:32.097Z,1.42
2022-08-03T11:36:01.273Z,1.77
2022-08-03T11:38:29.179Z,1.40
2022-08-03T11:40:57.165Z,1.38
2022-08-03T11:43:48.792Z,1.60
2022-08-03T11:46:29.558Z,1.23
2022-08-03T11:49:09.896Z,1.40
2022-08-03T11:51:39.994Z,1.30
2022-08-03T11:54:08.388Z,1.30
2022-08-03T11:56:45.745Z,1.30
2022-08-03T11:59:19.939Z,1.40
2022-08-03T12:01:51.347Z,1.35
2022-08-03T12:04:19.288Z,2.45
2022-08-03T12:07:00.228Z,1.92
2022-08-03T12:09:28.204Z,1.60
2022-08-03T12:12:00.304Z,1.42
2022-08-03T12:14:49.019Z,1.40
2022-08-03T12:17:19.551Z,1.40
2022-08-03T12:19:47.987Z,1.42
2022-08-03T12:22:17.066Z,1.42
2022-08-03T12:24:47.808Z,1.67
2022-08-03T12:27:25.145Z,1.77
2022-08-03T12:29:57.233Z,1.45
2022-08-03T12:32:29.818Z,1.42
2022-08-03T12:35:01.051Z,1.13
2022-08-03T12:40:08.024Z,1.10
2022-08-03T12:42:39.578Z,1.50
2022-08-03T12:45:20.794Z,1.23
2022-08-03T12:47:55.431Z,1.30
2022-08-03T12:50:28.260Z,1.50
2022-08-03T12:52:56.789Z,1.15
2022-08-03T12:55:25.327Z,1.25
2022-08-03T12:57:53.273Z,1.27
2022-08-03T13:00:28.906Z,1.00
2022-08-03T13:03:39.251Z,1.17
2022-08-03T13:05:52.485Z,1.15
2022-08-03T13:08:20.946Z,1.42
2022-08-03T13:10:49.188Z,1.40
2022-08-03T13:13:17.226Z,1.20
2022-08-03T13:15:47.949Z,1.20
2022-08-03T13:18:17.757Z,1.15
2022-08-03T13:20:45.812Z,0.90
2022-08-03T13:23:16.193Z,1.10
2022-08-03T13:25:55.410Z,0.82
2022-08-03T13:28:24.180Z,1.17
2022-08-03T13:30:54.179Z,1.20
2022-08-03T13:33:23.562Z,1.00
2022-08-03T13:35:51.494Z,1.25
2022-08-03T13:38:19.424Z,1.20
2022-08-03T13:40:49.637Z,0.95
2022-08-03T13:43:18.130Z,1.00
2022-08-03T13:45:51.204Z,1.02
2022-08-03T13:48:36.145Z,1.30
2022-08-03T13:51:21.695Z,1.13
2022-08-03T13:53:50.392Z,1.38
2022-08-03T13:56:18.393Z,1.10
2022-08-03T13:58:46.321Z,1.27
2022-08-03T14:01:14.328Z,1.00
2022-08-03T14:03:43.597Z,1.15
2022-08-03T14:06:12.196Z,1.17
2022-08-03T14:08:40.135Z,0.90
2022-08-03T14:11:08.626Z,1.05
2022-08-03T14:13:36.631Z,1.30
2022-08-03T14:16:05.091Z,1.33
2022-08-03T14:18:33.804Z,1.38
2022-08-03T14:21:06.663Z,1.10
2022-08-03T14:23:35.906Z,1.38
2022-08-03T14:26:03.843Z,1.55
2022-08-03T14:28:31.921Z,1.13
2022-08-03T14:31:00.045Z,1.60
2022-08-03T14:33:28.374Z,1.90
2022-08-03T14:35:56.397Z,1.70
2022-08-03T14:38:25.683Z,1.80
2022-08-03T14:40:54.237Z,1.85
2022-08-03T14:43:22.358Z,1.65
2022-08-03T14:45:52.245Z,1.75
2022-08-03T14:50:30.563Z,1.60
2022-08-03T14:51:08.591Z,1.80
2022-08-03T14:53:37.913Z,1.80
2022-08-03T14:56:10.158Z,1.75
2022-08-03T14:58:38.976Z,1.65
2022-08-03T15:02:02.107Z,1.70
2022-08-03T15:03:55.939Z,1.77
2022-08-03T15:06:23.840Z,1.73
2022-08-03T15:09:21.339Z,1.58
2022-08-03T15:11:41.126Z,1.60
2022-08-03T15:14:09.648Z,1.55
2022-08-03T15:16:38.222Z,1.80
2022-08-03T15:20:01.409Z,1.50
2022-08-03T15:21:54.327Z,1.60
2022-08-03T15:24:23.673Z,1.75
2022-08-03T15:26:52.000Z,1.67
2022-08-03T15:30:07.561Z,1.67
2022-08-03T15:32:09.590Z,1.60
2022-08-03T15:34:37.737Z,1.48
2022-08-03T15:37:16.494Z,1.40
2022-08-03T15:39:58.812Z,1.40
2022-08-03T15:42:28.492Z,1.33
2022-08-03T15:44:56.428Z,1.58
2022-08-03T15:47:24.399Z,1.40
2022-08-03T15:49:52.374Z,1.30
2022-08-03T15:52:20.301Z,1.70
2022-08-03T15:54:49.586Z,1.50
2022-08-03T15:57:17.659Z,1.30
2022-08-03T15:59:45.691Z,1.38
2022-08-03T16:02:13.782Z,1.60
2022-08-03T16:04:41.713Z,1.50
2022-08-03T16:07:17.728Z,1.30
2022-08-03T16:09:46.141Z,1.27
2022-08-03T16:12:16.781Z,1.33
2022-08-03T16:14:53.771Z,1.57
2022-08-03T16:17:22.810Z,1.50
2022-08-03T16:19:51.037Z,1.50
2022-08-03T16:22:23.021Z,1.15
2022-08-03T16:24:51.804Z,1.20
2022-08-03T16:27:36.744Z,1.30
2022-08-03T16:30:06.815Z,1.23
2022-08-03T16:32:35.043Z,1.40
2022-08-03T16:35:03.105Z,1.40
2022-08-03T16:37:39.417Z,1.80
2022-08-03T16:40:19.175Z,1.40
2022-08-03T16:42:48.891Z,1.40
2022-08-03T16:45:16.843Z,1.65
2022-08-03T16:47:44.931Z,1.42
2022-08-03T16:50:19.440Z,1.30
2022-08-03T16:52:48.339Z,1.30
2022-08-03T16:55:18.413Z,1.45
2022-08-03T16:58:06.891Z,1.85
2022-08-03T17:00:41.755Z,1.50
2022-08-03T17:03:18.893Z,1.50
2022-08-03T17:05:50.138Z,1.33
2022-08-03T17:08:26.603Z,1.65
2022-08-03T17:10:56.393Z,1.75
2022-08-03T17:13:39.320Z,1.70
2022-08-03T17:16:10.366Z,1.38
2022-08-03T17:18:48.656Z,1.55
2022-08-03T17:21:18.788Z,1.38
2022-08-03T17:23:55.603Z,1.55
2022-08-03T17:26:30.573Z,1.67
2022-08-03T17:29:12.641Z,1.30
2022-08-03T17:34:18.920Z,1.73
2022-08-03T17:37:05.793Z,1.65
2022-08-03T17:42:31.123Z,1.42
2022-08-03T17:45:03.887Z,1.40
2022-08-03T17:50:25.003Z,1.70
2022-08-03T17:52:59.569Z,1.50
2022-08-03T17:55:57.714Z,1.77
2022-08-03T17:58:23.335Z,1.25
2022-08-03T18:02:02.787Z,1.70
2022-08-03T18:04:10.933Z,1.30
2022-08-03T18:06:55.789Z,1.92
2022-08-03T18:10:05.862Z,1.90
2022-08-03T18:12:19.939Z,1.92
2022-08-03T18:14:57.154Z,1.90
2022-08-03T18:17:58.288Z,2.10
2022-08-03T18:20:34.748Z,1.98
2022-08-03T18:23:10.863Z,1.77
2022-08-03T18:25:58.279Z,1.80
2022-08-03T18:28:28.861Z,1.45
2022-08-03T18:30:56.966Z,2.00
2022-08-03T18:34:18.572Z,1.70
2022-08-03T18:36:21.580Z,1.88
2022-08-03T18:38:53.927Z,1.98
2022-08-03T18:41:33.632Z,1.63
2022-08-03T18:44:07.010Z,1.55
2022-08-03T18:46:48.096Z,1.80
2022-08-03T18:49:29.016Z,1.67
2022-08-03T18:52:02.294Z,2.03
2022-08-03T18:54:59.086Z,1.70
2022-08-03T18:57:41.193Z,2.00
2022-08-03T19:00:14.889Z,1.77
2022-08-03T19:02:49.484Z,1.90
2022-08-03T19:05:21.580Z,1.83
2022-08-03T19:07:59.815Z,2.15
2022-08-03T19:10:32.080Z,2.20
2022-08-03T19:13:04.962Z,2.40
2022-08-03T19:15:50.918Z,2.10
2022-08-03T19:18:21.984Z,1.90
2022-08-03T19:23:41.887Z,2.30
2022-08-03T19:26:29.916Z,2.65
2022-08-03T19:28:58.997Z,1.98
2022-08-03T19:31:30.955Z,2.28
2022-08-03T19:34:00.357Z,1.95
2022-08-03T19:36:32.322Z,2.08
2022-08-03T19:39:00.524Z,2.00
2022-08-03T19:41:41.981Z,2.25
2022-08-03T19:44:13.522Z,1.97
2022-08-03T19:46:51.279Z,2.13
2022-08-03T19:49:21.222Z,2.10
2022-08-03T19:52:01.225Z,2.17
2022-08-03T19:54:45.619Z,2.10
2022-08-03T19:57:24.424Z,2.20
2022-08-03T19:59:54.085Z,2.05
2022-08-03T20:02:25.677Z,2.13
2022-08-03T20:05:15.063Z,2.10
2022-08-03T20:07:48.162Z,2.22
2022-08-03T20:10:17.269Z,1.92
2022-08-03T20:12:46.131Z,2.35
2022-08-03T20:15:14.453Z,2.15
2022-08-03T20:17:56.771Z,2.40
2022-08-03T20:20:28.618Z,2.28
2022-08-03T20:23:00.276Z,2.65
2022-08-03T20:25:38.055Z,2.70
2022-08-03T20:28:14.030Z,2.45
2022-08-03T20:30:44.536Z,2.63
2022-08-03T20:35:49.309Z,2.20
2022-08-03T20:38:19.755Z,2.65
2022-08-03T20:40:56.221Z,2.70
2022-08-03T20:43:27.481Z,2.53
2022-08-03T20:45:59.014Z,2.58
2022-08-03T20:48:48.624Z,3.20
2022-08-03T20:51:19.961Z,2.75
2022-08-03T20:53:59.484Z,2.75
2022-08-03T20:56:33.698Z,2.65
2022-08-03T20:59:03.331Z,2.63
2022-08-03T21:01:36.303Z,3.08
2022-08-03T21:04:09.237Z,2.70
2022-08-03T21:06:53.176Z,2.92
2022-08-03T21:09:39.775Z,2.85
2022-08-03T21:12:09.614Z,2.95
2022-08-03T21:13:01.994Z,2.10
2022-08-03T21:13:05.029Z,1.38
2022-08-03T21:14:40.375Z,2.90
2022-08-03T21:17:25.045Z,3.10
2022-08-03T21:19:59.213Z,2.80
2022-08-03T21:22:31.025Z,3.30
2022-08-03T21:25:04.116Z,3.20
2022-08-03T21:27:33.303Z,3.47
2022-08-03T21:30:03.447Z,2.92
2022-08-03T21:32:33.090Z,3.25
2022-08-03T21:35:02.179Z,2.90
2022-08-03T21:37:30.599Z,3.38
2022-08-03T21:40:00.635Z,3.20
2022-08-03T21:42:29.280Z,3.03
2022-08-03T21:44:57.788Z,2.80
2022-08-03T21:47:26.650Z,3.20
2022-08-03T21:50:08.238Z,3.17
2022-08-03T21:52:43.088Z,3.22
2022-08-03T21:55:18.601Z,3.30
2022-08-03T21:57:53.805Z,3.33
2022-08-03T22:00:24.064Z,3.15
2022-08-03T22:02:55.752Z,3.72
2022-08-03T22:05:28.836Z,3.83
2022-08-03T22:08:13.021Z,3.72
2022-08-03T22:10:44.727Z,3.70
2022-08-03T22:13:13.491Z,3.50
2022-08-03T22:15:43.980Z,3.40
2022-08-03T22:18:12.447Z,3.45
2022-08-03T22:20:40.854Z,3.33
2022-08-03T22:23:09.334Z,3.17
2022-08-03T22:25:41.819Z,3.33
2022-08-03T22:28:11.624Z,3.83
2022-08-03T22:30:40.629Z,3.22
2022-08-03T22:33:11.678Z,3.17
2022-08-03T22:35:47.585Z,3.40
2022-08-03T22:38:17.476Z,3.40
2022-08-03T22:40:49.029Z,3.90
2022-08-03T22:43:17.867Z,3.80
2022-08-03T22:46:09.465Z,4.05
2022-08-03T22:48:41.168Z,3.97
2022-08-03T22:51:10.441Z,3.80
2022-08-03T22:53:41.567Z,3.72
2022-08-03T22:56:11.265Z,3.70
2022-08-03T22:58:39.222Z,4.20
2022-08-03T23:01:08.590Z,4.32
2022-08-03T23:04:00.713Z,4.50
2022-08-03T23:06:34.702Z,3.53
2022-08-03T23:09:05.550Z,3.55
2022-08-03T23:11:36.930Z,4.00
2022-08-03T23:14:08.233Z,4.28
2022-08-03T23:16:39.563Z,4.20
2022-08-03T23:19:16.619Z,4.15
2022-08-03T23:22:00.535Z,4.20
2022-08-03T23:24:34.082Z,4.40
2022-08-03T23:27:03.599Z,4.28
2022-08-03T23:29:31.994Z,4.00
2022-08-03T23:32:02.377Z,4.00
2022-08-03T23:34:49.711Z,4.18
2022-08-03T23:37:18.759Z,4.05
2022-08-03T23:39:48.183Z,4.15
2022-08-03T23:42:20.175Z,4.40
2022-08-03T23:44:48.892Z,3.85
2022-08-03T23:47:16.896Z,4.30
2022-08-03T23:49:45.274Z,3.67
2022-08-03T23:52:17.441Z,3.80
2022-08-03T23:54:54.216Z,3.90
2022-08-03T23:57:31.027Z,3.88
